This is the latest recevied weather packets stored in our database for station/object ED5YAW-10. If no packets are shown the sender has not sent any weather packets the latest 1 day(s).
| Time | Temp. | Humidity | Pressure | Rain* | Wind** | Luminosity | Snow |
|---|---|---|---|---|---|---|---|
| 1778083263 | 20.56° C | 31% | 871 hPa | - | - | - | - |
| 1778082052 | 21.11° C | 29% | 871 hPa | - | - | - | - |
| 1778082048 | 21.11° C | 29% | 871 hPa | - | - | - | - |
| 1778080236 | 22.22° C | 29% | 871 hPa | - | - | - | - |
| 1778080232 | 22.22° C | 29% | 871 hPa | - | - | - | - |
| 1778077813 | 22.78° C | 30% | 871 hPa | - | - | - | - |
| 1778077213 | 22.22° C | 30% | 871 hPa | - | - | - | - |
| 1778075396 | 22.78° C | 29% | 872 hPa | - | - | - | - |
| 1778074796 | 22.78° C | 28% | 871 hPa | - | - | - | - |
| 1778074792 | 22.78° C | 28% | 871 hPa | - | - | - | - |
| 1778072374 | 22.22° C | 28% | 872 hPa | - | - | - | - |
| 1778071770 | 22.78° C | 28% | 872 hPa | - | - | - | - |
| 1778071170 | 23.33° C | 26% | 872 hPa | - | - | - | - |
| 1778069353 | 22.78° C | 29% | 872 hPa | - | - | - | - |
| 1778068753 | 22.78° C | 30% | 872 hPa | - | - | - | - |
| 1778066940 | 20.56° C | 33% | 872 hPa | - | - | - | - |
| 1778066936 | 20.56° C | 33% | 872 hPa | - | - | - | - |
| 1778066336 | 20° C | 34% | 872 hPa | - | - | - | - |
| 1778063914 | 22.22° C | 30% | 873 hPa | - | - | - | - |
| 1778063314 | 22.78° C | 29% | 873 hPa | - | - | - | - |
| 1778063310 | 22.78° C | 29% | 873 hPa | - | - | - | - |
| 1778062710 | 23.33° C | 30% | 872 hPa | - | - | - | - |
| 1778060893 | 21.67° C | 32% | 873 hPa | - | - | - | - |
| 1778060293 | 22.22° C | 32% | 873 hPa | - | - | - | - |
| 1778059688 | 22.78° C | 31% | 873 hPa | - | - | - | - |
* Rain since midnight (hover to see other rain measurements)
** Current wind speed in m/s (hover to see current wind gust speed)